sensor_id;sensor_type;location;lat;lon;timestamp;P1;durP1;ratioP1;P2;durP2;ratioP2
5460;SDS011;2753;49.196;8.286;2023-05-10T00:00:46;0.50;;;0.50;;
5460;SDS011;2753;49.196;8.286;2023-05-10T00:03:12;0.50;;;0.50;;
5460;SDS011;2753;49.196;8.286;2023-05-10T00:05:38;2.70;;;0.50;;
5460;SDS011;2753;49.196;8.286;2023-05-10T00:08:03;1.17;;;0.50;;
5460;SDS011;2753;49.196;8.286;2023-05-10T00:10:29;0.50;;;0.50;;
5460;SDS011;2753;49.196;8.286;2023-05-10T00:12:55;0.80;;;0.40;;
5460;SDS011;2753;49.196;8.286;2023-05-10T00:15:21;0.60;;;0.60;;
5460;SDS011;2753;49.196;8.286;2023-05-10T00:17:47;0.80;;;0.40;;
5460;SDS011;2753;49.196;8.286;2023-05-10T00:20:12;0.40;;;0.40;;
5460;SDS011;2753;49.196;8.286;2023-05-10T00:22:38;2.00;;;0.40;;
5460;SDS011;2753;49.196;8.286;2023-05-10T00:25:04;0.50;;;0.40;;
5460;SDS011;2753;49.196;8.286;2023-05-10T00:27:30;2.43;;;0.60;;
5460;SDS011;2753;49.196;8.286;2023-05-10T00:29:56;0.70;;;0.40;;
5460;SDS011;2753;49.196;8.286;2023-05-10T00:32:21;2.70;;;0.77;;
5460;SDS011;2753;49.196;8.286;2023-05-10T00:34:47;0.50;;;0.40;;
5460;SDS011;2753;49.196;8.286;2023-05-10T00:37:12;1.30;;;0.47;;
5460;SDS011;2753;49.196;8.286;2023-05-10T00:39:38;0.50;;;0.50;;
5460;SDS011;2753;49.196;8.286;2023-05-10T00:42:04;0.60;;;0.40;;
5460;SDS011;2753;49.196;8.286;2023-05-10T00:44:29;1.00;;;0.70;;
5460;SDS011;2753;49.196;8.286;2023-05-10T00:46:56;0.50;;;0.40;;
5460;SDS011;2753;49.196;8.286;2023-05-10T00:49:22;0.50;;;0.50;;
5460;SDS011;2753;49.196;8.286;2023-05-10T00:51:48;0.87;;;0.47;;
5460;SDS011;2753;49.196;8.286;2023-05-10T00:54:14;0.60;;;0.60;;
5460;SDS011;2753;49.196;8.286;2023-05-10T00:56:40;0.50;;;0.50;;
5460;SDS011;2753;49.196;8.286;2023-05-10T00:59:07;0.50;;;0.50;;
5460;SDS011;2753;49.196;8.286;2023-05-10T01:01:34;2.10;;;0.77;;
5460;SDS011;2753;49.196;8.286;2023-05-10T01:04:01;5.63;;;0.63;;
5460;SDS011;2753;49.196;8.286;2023-05-10T01:06:28;0.60;;;0.60;;
5460;SDS011;2753;49.196;8.286;2023-05-10T01:08:53;0.50;;;0.50;;
5460;SDS011;2753;49.196;8.286;2023-05-10T01:11:20;0.80;;;0.80;;
5460;SDS011;2753;49.196;8.286;2023-05-10T01:13:47;0.77;;;0.60;;
5460;SDS011;2753;49.196;8.286;2023-05-10T01:16:21;0.80;;;0.80;;
5460;SDS011;2753;49.196;8.286;2023-05-10T01:18:47;1.60;;;0.70;;
5460;SDS011;2753;49.196;8.286;2023-05-10T01:21:19;0.90;;;0.90;;
5460;SDS011;2753;49.196;8.286;2023-05-10T01:27:14;0.90;;;0.70;;
5460;SDS011;2753;49.196;8.286;2023-05-10T01:32:41;1.00;;;1.00;;
5460;SDS011;2753;49.196;8.286;2023-05-10T01:35:17;2.63;;;0.97;;
5460;SDS011;2753;49.196;8.286;2023-05-10T01:40:42;2.50;;;1.20;;
5460;SDS011;2753;49.196;8.286;2023-05-10T01:43:30;11.17;;;1.47;;
5460;SDS011;2753;49.196;8.286;2023-05-10T01:46:04;4.30;;;1.00;;
5460;SDS011;2753;49.196;8.286;2023-05-10T01:48:41;5.77;;;0.97;;
5460;SDS011;2753;49.196;8.286;2023-05-10T01:51:16;1.20;;;1.20;;
5460;SDS011;2753;49.196;8.286;2023-05-10T01:53:50;1.30;;;1.27;;
5460;SDS011;2753;49.196;8.286;2023-05-10T01:56:22;1.17;;;1.17;;
5460;SDS011;2753;49.196;8.286;2023-05-10T01:58:51;12.33;;;2.00;;
5460;SDS011;2753;49.196;8.286;2023-05-10T02:01:18;1.80;;;1.70;;
5460;SDS011;2753;49.196;8.286;2023-05-10T02:03:46;2.30;;;1.47;;
5460;SDS011;2753;49.196;8.286;2023-05-10T02:06:14;2.30;;;1.20;;
5460;SDS011;2753;49.196;8.286;2023-05-10T02:08:43;3.23;;;1.30;;
5460;SDS011;2753;49.196;8.286;2023-05-10T02:11:10;1.90;;;1.80;;
5460;SDS011;2753;49.196;8.286;2023-05-10T02:13:38;4.30;;;1.90;;
5460;SDS011;2753;49.196;8.286;2023-05-10T02:16:06;1.80;;;1.70;;
5460;SDS011;2753;49.196;8.286;2023-05-10T02:18:34;1.70;;;1.60;;
5460;SDS011;2753;49.196;8.286;2023-05-10T02:21:02;4.93;;;1.80;;
5460;SDS011;2753;49.196;8.286;2023-05-10T02:23:28;1.50;;;1.50;;
5460;SDS011;2753;49.196;8.286;2023-05-10T02:25:54;1.37;;;1.37;;
5460;SDS011;2753;49.196;8.286;2023-05-10T02:28:22;1.63;;;1.40;;
5460;SDS011;2753;49.196;8.286;2023-05-10T02:30:49;2.30;;;1.30;;
5460;SDS011;2753;49.196;8.286;2023-05-10T02:33:16;2.03;;;1.93;;
5460;SDS011;2753;49.196;8.286;2023-05-10T02:35:43;1.83;;;1.73;;
5460;SDS011;2753;49.196;8.286;2023-05-10T02:38:09;7.03;;;1.60;;
5460;SDS011;2753;49.196;8.286;2023-05-10T02:40:36;4.23;;;1.93;;
5460;SDS011;2753;49.196;8.286;2023-05-10T02:43:03;1.53;;;1.53;;
5460;SDS011;2753;49.196;8.286;2023-05-10T02:45:31;2.43;;;1.63;;
5460;SDS011;2753;49.196;8.286;2023-05-10T02:48:00;2.10;;;1.83;;
5460;SDS011;2753;49.196;8.286;2023-05-10T02:50:27;2.00;;;1.60;;
5460;SDS011;2753;49.196;8.286;2023-05-10T02:52:55;5.60;;;1.60;;
5460;SDS011;2753;49.196;8.286;2023-05-10T02:55:27;3.30;;;1.80;;
5460;SDS011;2753;49.196;8.286;2023-05-10T02:58:02;2.43;;;2.23;;
5460;SDS011;2753;49.196;8.286;2023-05-10T03:00:28;1.37;;;1.37;;
5460;SDS011;2753;49.196;8.286;2023-05-10T03:02:54;6.33;;;1.70;;
5460;SDS011;2753;49.196;8.286;2023-05-10T03:05:20;2.30;;;2.10;;
5460;SDS011;2753;49.196;8.286;2023-05-10T03:07:46;1.67;;;1.67;;
5460;SDS011;2753;49.196;8.286;2023-05-10T03:10:12;2.13;;;1.93;;
5460;SDS011;2753;49.196;8.286;2023-05-10T03:15:19;2.67;;;1.90;;
5460;SDS011;2753;49.196;8.286;2023-05-10T03:18:15;2.20;;;2.10;;
5460;SDS011;2753;49.196;8.286;2023-05-10T03:20:42;1.80;;;1.70;;
5460;SDS011;2753;49.196;8.286;2023-05-10T03:23:12;6.30;;;2.23;;
5460;SDS011;2753;49.196;8.286;2023-05-10T03:25:39;1.80;;;1.70;;
5460;SDS011;2753;49.196;8.286;2023-05-10T03:28:06;2.63;;;2.23;;
5460;SDS011;2753;49.196;8.286;2023-05-10T03:30:32;3.17;;;2.10;;
5460;SDS011;2753;49.196;8.286;2023-05-10T03:32:59;2.63;;;2.10;;
5460;SDS011;2753;49.196;8.286;2023-05-10T03:35:32;5.63;;;1.77;;
5460;SDS011;2753;49.196;8.286;2023-05-10T03:37:58;3.70;;;2.40;;
5460;SDS011;2753;49.196;8.286;2023-05-10T03:40:24;2.27;;;2.00;;
5460;SDS011;2753;49.196;8.286;2023-05-10T03:42:51;8.33;;;2.10;;
5460;SDS011;2753;49.196;8.286;2023-05-10T03:45:16;9.83;;;2.30;;
5460;SDS011;2753;49.196;8.286;2023-05-10T03:47:42;4.20;;;2.13;;
5460;SDS011;2753;49.196;8.286;2023-05-10T03:50:08;3.13;;;1.73;;
5460;SDS011;2753;49.196;8.286;2023-05-10T03:52:35;6.00;;;2.50;;
5460;SDS011;2753;49.196;8.286;2023-05-10T03:55:00;2.27;;;2.17;;
5460;SDS011;2753;49.196;8.286;2023-05-10T03:57:28;2.83;;;2.63;;
5460;SDS011;2753;49.196;8.286;2023-05-10T03:59:54;2.60;;;2.40;;
5460;SDS011;2753;49.196;8.286;2023-05-10T04:02:19;2.50;;;2.30;;
5460;SDS011;2753;49.196;8.286;2023-05-10T04:04:45;4.00;;;2.10;;
5460;SDS011;2753;49.196;8.286;2023-05-10T04:07:11;2.83;;;2.63;;
5460;SDS011;2753;49.196;8.286;2023-05-10T04:09:36;2.70;;;2.50;;
5460;SDS011;2753;49.196;8.286;2023-05-10T04:12:02;4.60;;;2.13;;
5460;SDS011;2753;49.196;8.286;2023-05-10T04:14:28;2.57;;;2.20;;
5460;SDS011;2753;49.196;8.286;2023-05-10T04:16:53;2.80;;;2.70;;
5460;SDS011;2753;49.196;8.286;2023-05-10T04:19:20;6.70;;;2.57;;
5460;SDS011;2753;49.196;8.286;2023-05-10T04:21:45;2.93;;;2.70;;
5460;SDS011;2753;49.196;8.286;2023-05-10T04:24:11;2.23;;;1.90;;
5460;SDS011;2753;49.196;8.286;2023-05-10T04:26:37;6.20;;;3.20;;
5460;SDS011;2753;49.196;8.286;2023-05-10T04:29:02;2.37;;;2.27;;
5460;SDS011;2753;49.196;8.286;2023-05-10T04:31:28;2.80;;;2.70;;
5460;SDS011;2753;49.196;8.286;2023-05-10T04:33:54;3.47;;;3.27;;
5460;SDS011;2753;49.196;8.286;2023-05-10T04:36:19;3.10;;;2.70;;
5460;SDS011;2753;49.196;8.286;2023-05-10T04:38:45;6.10;;;2.90;;
5460;SDS011;2753;49.196;8.286;2023-05-10T04:41:11;3.57;;;3.10;;
5460;SDS011;2753;49.196;8.286;2023-05-10T04:43:37;3.37;;;3.17;;
5460;SDS011;2753;49.196;8.286;2023-05-10T04:46:03;3.70;;;3.40;;
5460;SDS011;2753;49.196;8.286;2023-05-10T04:48:30;3.40;;;3.10;;
5460;SDS011;2753;49.196;8.286;2023-05-10T04:50:55;7.00;;;3.73;;
5460;SDS011;2753;49.196;8.286;2023-05-10T04:53:21;5.20;;;4.00;;
5460;SDS011;2753;49.196;8.286;2023-05-10T04:55:47;3.87;;;3.57;;
5460;SDS011;2753;49.196;8.286;2023-05-10T04:58:13;4.00;;;3.70;;
5460;SDS011;2753;49.196;8.286;2023-05-10T05:00:39;5.53;;;4.00;;
5460;SDS011;2753;49.196;8.286;2023-05-10T05:03:05;4.07;;;3.80;;
5460;SDS011;2753;49.196;8.286;2023-05-10T05:05:31;4.87;;;4.57;;
5460;SDS011;2753;49.196;8.286;2023-05-10T05:07:56;5.10;;;4.30;;
5460;SDS011;2753;49.196;8.286;2023-05-10T05:10:22;3.53;;;3.33;;
5460;SDS011;2753;49.196;8.286;2023-05-10T05:12:48;4.80;;;4.50;;
5460;SDS011;2753;49.196;8.286;2023-05-10T05:15:13;6.30;;;4.80;;
5460;SDS011;2753;49.196;8.286;2023-05-10T05:17:41;5.70;;;5.20;;
5460;SDS011;2753;49.196;8.286;2023-05-10T05:20:07;4.83;;;3.90;;
5460;SDS011;2753;49.196;8.286;2023-05-10T05:22:33;4.50;;;4.20;;
5460;SDS011;2753;49.196;8.286;2023-05-10T05:25:00;4.07;;;3.77;;
5460;SDS011;2753;49.196;8.286;2023-05-10T05:27:27;3.40;;;3.20;;
5460;SDS011;2753;49.196;8.286;2023-05-10T05:29:53;3.40;;;3.10;;
5460;SDS011;2753;49.196;8.286;2023-05-10T05:32:20;3.97;;;3.67;;
5460;SDS011;2753;49.196;8.286;2023-05-10T05:34:45;3.03;;;2.80;;
5460;SDS011;2753;49.196;8.286;2023-05-10T05:37:14;3.37;;;3.07;;
5460;SDS011;2753;49.196;8.286;2023-05-10T05:39:41;3.17;;;2.97;;
5460;SDS011;2753;49.196;8.286;2023-05-10T05:42:07;3.30;;;2.57;;
5460;SDS011;2753;49.196;8.286;2023-05-10T05:44:37;2.20;;;2.10;;
5460;SDS011;2753;49.196;8.286;2023-05-10T05:47:03;5.20;;;2.47;;
5460;SDS011;2753;49.196;8.286;2023-05-10T05:49:29;2.33;;;2.23;;
5460;SDS011;2753;49.196;8.286;2023-05-10T05:51:58;8.00;;;1.97;;
5460;SDS011;2753;49.196;8.286;2023-05-10T05:54:27;2.67;;;2.43;;
5460;SDS011;2753;49.196;8.286;2023-05-10T05:56:56;2.77;;;2.57;;
5460;SDS011;2753;49.196;8.286;2023-05-10T05:59:23;4.23;;;2.60;;
5460;SDS011;2753;49.196;8.286;2023-05-10T06:01:49;3.50;;;2.30;;
5460;SDS011;2753;49.196;8.286;2023-05-10T06:04:15;2.63;;;2.43;;
5460;SDS011;2753;49.196;8.286;2023-05-10T06:06:41;7.70;;;2.70;;
5460;SDS011;2753;49.196;8.286;2023-05-10T06:09:07;4.40;;;3.10;;
5460;SDS011;2753;49.196;8.286;2023-05-10T06:11:34;4.10;;;3.03;;
5460;SDS011;2753;49.196;8.286;2023-05-10T06:14:06;4.40;;;2.70;;
5460;SDS011;2753;49.196;8.286;2023-05-10T06:16:33;3.07;;;2.87;;
5460;SDS011;2753;49.196;8.286;2023-05-10T06:19:28;3.43;;;3.13;;
5460;SDS011;2753;49.196;8.286;2023-05-10T06:21:54;8.03;;;3.67;;
5460;SDS011;2753;49.196;8.286;2023-05-10T06:24:20;3.10;;;2.80;;
5460;SDS011;2753;49.196;8.286;2023-05-10T06:26:46;9.60;;;2.97;;
5460;SDS011;2753;49.196;8.286;2023-05-10T06:29:14;4.00;;;3.67;;
5460;SDS011;2753;49.196;8.286;2023-05-10T06:31:40;3.77;;;3.47;;
5460;SDS011;2753;49.196;8.286;2023-05-10T06:34:06;4.37;;;3.97;;
5460;SDS011;2753;49.196;8.286;2023-05-10T06:36:33;4.40;;;3.80;;
5460;SDS011;2753;49.196;8.286;2023-05-10T06:38:59;6.50;;;3.60;;
5460;SDS011;2753;49.196;8.286;2023-05-10T06:41:24;4.83;;;3.80;;
5460;SDS011;2753;49.196;8.286;2023-05-10T06:43:50;5.63;;;3.13;;
5460;SDS011;2753;49.196;8.286;2023-05-10T06:46:16;4.60;;;3.43;;
5460;SDS011;2753;49.196;8.286;2023-05-10T06:48:41;2.63;;;2.40;;
5460;SDS011;2753;49.196;8.286;2023-05-10T06:51:07;2.13;;;2.03;;
5460;SDS011;2753;49.196;8.286;2023-05-10T06:53:33;2.20;;;2.10;;
5460;SDS011;2753;49.196;8.286;2023-05-10T06:55:58;1.60;;;1.50;;
5460;SDS011;2753;49.196;8.286;2023-05-10T06:58:24;2.13;;;1.93;;
5460;SDS011;2753;49.196;8.286;2023-05-10T07:00:50;1.47;;;1.47;;
5460;SDS011;2753;49.196;8.286;2023-05-10T07:03:15;2.03;;;1.77;;
5460;SDS011;2753;49.196;8.286;2023-05-10T07:05:41;1.93;;;1.83;;
5460;SDS011;2753;49.196;8.286;2023-05-10T07:08:07;3.43;;;2.27;;
5460;SDS011;2753;49.196;8.286;2023-05-10T07:10:33;1.67;;;1.57;;
5460;SDS011;2753;49.196;8.286;2023-05-10T07:12:59;1.73;;;1.63;;
5460;SDS011;2753;49.196;8.286;2023-05-10T07:15:26;2.50;;;1.60;;
5460;SDS011;2753;49.196;8.286;2023-05-10T07:17:51;1.47;;;1.40;;
5460;SDS011;2753;49.196;8.286;2023-05-10T07:20:17;2.83;;;1.60;;
5460;SDS011;2753;49.196;8.286;2023-05-10T07:22:43;1.63;;;1.53;;
5460;SDS011;2753;49.196;8.286;2023-05-10T07:25:09;0.80;;;0.80;;
5460;SDS011;2753;49.196;8.286;2023-05-10T07:27:35;3.37;;;1.10;;
5460;SDS011;2753;49.196;8.286;2023-05-10T07:30:01;0.90;;;0.90;;
5460;SDS011;2753;49.196;8.286;2023-05-10T07:32:27;2.10;;;0.80;;
5460;SDS011;2753;49.196;8.286;2023-05-10T07:34:53;0.80;;;0.80;;
5460;SDS011;2753;49.196;8.286;2023-05-10T07:37:18;1.37;;;0.70;;
5460;SDS011;2753;49.196;8.286;2023-05-10T07:39:44;1.50;;;1.20;;
5460;SDS011;2753;49.196;8.286;2023-05-10T07:42:10;0.93;;;0.77;;
5460;SDS011;2753;49.196;8.286;2023-05-10T07:44:35;1.43;;;0.70;;
5460;SDS011;2753;49.196;8.286;2023-05-10T07:47:01;7.10;;;1.10;;
5460;SDS011;2753;49.196;8.286;2023-05-10T07:49:27;0.90;;;0.70;;
5460;SDS011;2753;49.196;8.286;2023-05-10T07:51:52;0.80;;;0.80;;
5460;SDS011;2753;49.196;8.286;2023-05-10T07:54:18;5.13;;;0.80;;
5460;SDS011;2753;49.196;8.286;2023-05-10T07:56:44;3.87;;;1.10;;
5460;SDS011;2753;49.196;8.286;2023-05-10T07:59:15;0.80;;;0.80;;
5460;SDS011;2753;49.196;8.286;2023-05-10T08:01:42;0.90;;;0.83;;
5460;SDS011;2753;49.196;8.286;2023-05-10T08:04:09;1.63;;;0.80;;
5460;SDS011;2753;49.196;8.286;2023-05-10T08:06:34;6.23;;;1.23;;
5460;SDS011;2753;49.196;8.286;2023-05-10T08:09:00;7.10;;;1.00;;
5460;SDS011;2753;49.196;8.286;2023-05-10T08:11:26;1.07;;;0.97;;
5460;SDS011;2753;49.196;8.286;2023-05-10T08:13:52;0.90;;;0.90;;
5460;SDS011;2753;49.196;8.286;2023-05-10T08:16:18;0.70;;;0.70;;
5460;SDS011;2753;49.196;8.286;2023-05-10T08:18:45;1.10;;;1.00;;
5460;SDS011;2753;49.196;8.286;2023-05-10T08:21:12;0.90;;;0.90;;
5460;SDS011;2753;49.196;8.286;2023-05-10T08:23:38;4.63;;;0.77;;
5460;SDS011;2753;49.196;8.286;2023-05-10T08:26:04;2.60;;;0.70;;
5460;SDS011;2753;49.196;8.286;2023-05-10T08:28:30;1.50;;;1.30;;
5460;SDS011;2753;49.196;8.286;2023-05-10T08:30:56;1.00;;;1.00;;
5460;SDS011;2753;49.196;8.286;2023-05-10T08:33:22;2.83;;;0.93;;
5460;SDS011;2753;49.196;8.286;2023-05-10T08:35:47;8.27;;;1.10;;
5460;SDS011;2753;49.196;8.286;2023-05-10T08:38:13;2.50;;;1.23;;
5460;SDS011;2753;49.196;8.286;2023-05-10T08:40:40;0.90;;;0.90;;
5460;SDS011;2753;49.196;8.286;2023-05-10T08:43:08;0.93;;;0.93;;
5460;SDS011;2753;49.196;8.286;2023-05-10T08:45:39;1.43;;;0.80;;
5460;SDS011;2753;49.196;8.286;2023-05-10T08:48:06;2.80;;;1.00;;
5460;SDS011;2753;49.196;8.286;2023-05-10T08:50:35;1.50;;;1.40;;
5460;SDS011;2753;49.196;8.286;2023-05-10T08:53:03;1.90;;;1.17;;
5460;SDS011;2753;49.196;8.286;2023-05-10T08:55:30;1.70;;;1.10;;
5460;SDS011;2753;49.196;8.286;2023-05-10T08:57:57;1.93;;;1.03;;
5460;SDS011;2753;49.196;8.286;2023-05-10T09:00:24;2.07;;;1.20;;
5460;SDS011;2753;49.196;8.286;2023-05-10T09:02:51;1.20;;;1.10;;
5460;SDS011;2753;49.196;8.286;2023-05-10T09:05:17;1.30;;;1.30;;
5460;SDS011;2753;49.196;8.286;2023-05-10T09:07:43;1.13;;;1.10;;
5460;SDS011;2753;49.196;8.286;2023-05-10T09:10:09;1.87;;;1.40;;
5460;SDS011;2753;49.196;8.286;2023-05-10T09:12:36;3.03;;;0.93;;
5460;SDS011;2753;49.196;8.286;2023-05-10T09:15:03;3.13;;;0.80;;
5460;SDS011;2753;49.196;8.286;2023-05-10T09:17:30;1.57;;;0.97;;
5460;SDS011;2753;49.196;8.286;2023-05-10T09:20:03;5.03;;;1.27;;
5460;SDS011;2753;49.196;8.286;2023-05-10T09:22:32;0.83;;;0.83;;
5460;SDS011;2753;49.196;8.286;2023-05-10T09:25:09;2.10;;;0.90;;
5460;SDS011;2753;49.196;8.286;2023-05-10T09:27:36;1.00;;;1.00;;
5460;SDS011;2753;49.196;8.286;2023-05-10T09:30:03;6.73;;;1.03;;
5460;SDS011;2753;49.196;8.286;2023-05-10T09:32:37;3.10;;;0.80;;
5460;SDS011;2753;49.196;8.286;2023-05-10T09:35:17;5.23;;;1.10;;
5460;SDS011;2753;49.196;8.286;2023-05-10T09:37:48;1.40;;;0.97;;
5460;SDS011;2753;49.196;8.286;2023-05-10T09:40:16;0.77;;;0.77;;
5460;SDS011;2753;49.196;8.286;2023-05-10T09:45:24;0.60;;;0.60;;
5460;SDS011;2753;49.196;8.286;2023-05-10T09:47:51;0.60;;;0.60;;
5460;SDS011;2753;49.196;8.286;2023-05-10T09:50:18;0.80;;;0.63;;
5460;SDS011;2753;49.196;8.286;2023-05-10T09:58:04;0.63;;;0.63;;
5460;SDS011;2753;49.196;8.286;2023-05-10T10:00:35;3.23;;;0.97;;
5460;SDS011;2753;49.196;8.286;2023-05-10T10:03:20;1.07;;;0.87;;
5460;SDS011;2753;49.196;8.286;2023-05-10T10:05:46;3.17;;;0.80;;
5460;SDS011;2753;49.196;8.286;2023-05-10T10:08:12;0.80;;;0.80;;
5460;SDS011;2753;49.196;8.286;2023-05-10T10:10:39;0.70;;;0.70;;
5460;SDS011;2753;49.196;8.286;2023-05-10T10:13:06;1.63;;;1.20;;
5460;SDS011;2753;49.196;8.286;2023-05-10T10:15:33;4.73;;;0.63;;
5460;SDS011;2753;49.196;8.286;2023-05-10T10:17:59;1.10;;;1.00;;
5460;SDS011;2753;49.196;8.286;2023-05-10T10:20:25;2.13;;;1.00;;
5460;SDS011;2753;49.196;8.286;2023-05-10T10:22:52;2.83;;;1.00;;
5460;SDS011;2753;49.196;8.286;2023-05-10T10:25:18;1.97;;;0.80;;
5460;SDS011;2753;49.196;8.286;2023-05-10T10:33:10;0.60;;;0.60;;
5460;SDS011;2753;49.196;8.286;2023-05-10T10:35:39;5.03;;;0.90;;
5460;SDS011;2753;49.196;8.286;2023-05-10T10:38:05;1.40;;;0.73;;
5460;SDS011;2753;49.196;8.286;2023-05-10T10:40:33;2.40;;;1.00;;
5460;SDS011;2753;49.196;8.286;2023-05-10T10:48:37;2.43;;;0.80;;
5460;SDS011;2753;49.196;8.286;2023-05-10T10:51:03;1.27;;;0.87;;
5460;SDS011;2753;49.196;8.286;2023-05-10T10:53:29;1.40;;;0.90;;
5460;SDS011;2753;49.196;8.286;2023-05-10T10:56:05;1.50;;;0.70;;
5460;SDS011;2753;49.196;8.286;2023-05-10T10:58:35;2.70;;;1.00;;
5460;SDS011;2753;49.196;8.286;2023-05-10T11:01:10;5.50;;;1.10;;
5460;SDS011;2753;49.196;8.286;2023-05-10T11:03:36;2.97;;;0.90;;
5460;SDS011;2753;49.196;8.286;2023-05-10T11:06:01;3.50;;;0.77;;
5460;SDS011;2753;49.196;8.286;2023-05-10T11:08:28;3.07;;;1.00;;
5460;SDS011;2753;49.196;8.286;2023-05-10T11:16:16;2.07;;;1.03;;
5460;SDS011;2753;49.196;8.286;2023-05-10T11:21:28;2.23;;;1.27;;
5460;SDS011;2753;49.196;8.286;2023-05-10T11:23:56;3.60;;;1.00;;
5460;SDS011;2753;49.196;8.286;2023-05-10T11:26:32;2.50;;;1.00;;
5460;SDS011;2753;49.196;8.286;2023-05-10T11:29:00;5.43;;;0.70;;
5460;SDS011;2753;49.196;8.286;2023-05-10T11:31:26;1.07;;;0.73;;
5460;SDS011;2753;49.196;8.286;2023-05-10T11:33:57;1.73;;;0.60;;
5460;SDS011;2753;49.196;8.286;2023-05-10T11:36:25;4.03;;;1.27;;
5460;SDS011;2753;49.196;8.286;2023-05-10T11:38:53;4.00;;;0.70;;
5460;SDS011;2753;49.196;8.286;2023-05-10T11:41:20;5.10;;;1.27;;
5460;SDS011;2753;49.196;8.286;2023-05-10T11:43:54;1.23;;;0.70;;
5460;SDS011;2753;49.196;8.286;2023-05-10T11:46:22;1.73;;;0.80;;
5460;SDS011;2753;49.196;8.286;2023-05-10T11:48:51;1.80;;;0.80;;
5460;SDS011;2753;49.196;8.286;2023-05-10T11:51:22;2.93;;;0.70;;
5460;SDS011;2753;49.196;8.286;2023-05-10T11:53:52;1.20;;;0.90;;
5460;SDS011;2753;49.196;8.286;2023-05-10T11:56:19;1.47;;;1.07;;
5460;SDS011;2753;49.196;8.286;2023-05-10T11:58:45;1.63;;;0.93;;
5460;SDS011;2753;49.196;8.286;2023-05-10T12:01:21;0.77;;;0.77;;
5460;SDS011;2753;49.196;8.286;2023-05-10T12:03:48;1.67;;;0.77;;
5460;SDS011;2753;49.196;8.286;2023-05-10T12:06:15;4.13;;;1.00;;
5460;SDS011;2753;49.196;8.286;2023-05-10T12:08:44;1.53;;;0.93;;
5460;SDS011;2753;49.196;8.286;2023-05-10T12:11:11;1.27;;;1.17;;
5460;SDS011;2753;49.196;8.286;2023-05-10T12:13:43;11.13;;;1.80;;
5460;SDS011;2753;49.196;8.286;2023-05-10T12:16:19;2.40;;;0.90;;
5460;SDS011;2753;49.196;8.286;2023-05-10T12:18:49;3.67;;;0.87;;
5460;SDS011;2753;49.196;8.286;2023-05-10T12:21:16;3.90;;;1.23;;
5460;SDS011;2753;49.196;8.286;2023-05-10T12:23:43;1.20;;;1.00;;
5460;SDS011;2753;49.196;8.286;2023-05-10T12:26:11;3.07;;;0.83;;
5460;SDS011;2753;49.196;8.286;2023-05-10T12:28:37;0.80;;;0.80;;
5460;SDS011;2753;49.196;8.286;2023-05-10T12:31:04;2.20;;;2.00;;
5460;SDS011;2753;49.196;8.286;2023-05-10T12:33:37;3.50;;;0.90;;
5460;SDS011;2753;49.196;8.286;2023-05-10T12:36:10;1.47;;;0.83;;
5460;SDS011;2753;49.196;8.286;2023-05-10T12:38:38;1.63;;;0.60;;
5460;SDS011;2753;49.196;8.286;2023-05-10T12:41:07;0.90;;;0.70;;
5460;SDS011;2753;49.196;8.286;2023-05-10T12:43:37;2.50;;;0.90;;
5460;SDS011;2753;49.196;8.286;2023-05-10T12:46:04;2.63;;;0.60;;
5460;SDS011;2753;49.196;8.286;2023-05-10T12:48:34;3.67;;;0.87;;
5460;SDS011;2753;49.196;8.286;2023-05-10T12:51:01;1.10;;;0.80;;
5460;SDS011;2753;49.196;8.286;2023-05-10T12:53:28;3.77;;;0.90;;
5460;SDS011;2753;49.196;8.286;2023-05-10T12:55:53;1.90;;;0.97;;
5460;SDS011;2753;49.196;8.286;2023-05-10T12:58:19;3.73;;;0.90;;
5460;SDS011;2753;49.196;8.286;2023-05-10T13:00:45;4.77;;;0.87;;
5460;SDS011;2753;49.196;8.286;2023-05-10T13:03:11;2.00;;;0.60;;
5460;SDS011;2753;49.196;8.286;2023-05-10T13:05:37;0.90;;;0.60;;
5460;SDS011;2753;49.196;8.286;2023-05-10T13:08:02;0.60;;;0.60;;
5460;SDS011;2753;49.196;8.286;2023-05-10T13:10:29;9.97;;;1.70;;
5460;SDS011;2753;49.196;8.286;2023-05-10T13:12:55;1.13;;;0.60;;
5460;SDS011;2753;49.196;8.286;2023-05-10T13:15:22;1.33;;;0.60;;
5460;SDS011;2753;49.196;8.286;2023-05-10T13:17:47;1.80;;;0.60;;
5460;SDS011;2753;49.196;8.286;2023-05-10T13:20:13;1.97;;;0.60;;
5460;SDS011;2753;49.196;8.286;2023-05-10T13:22:40;1.23;;;0.67;;
5460;SDS011;2753;49.196;8.286;2023-05-10T13:25:06;3.30;;;0.53;;
5460;SDS011;2753;49.196;8.286;2023-05-10T13:27:32;2.13;;;0.80;;
5460;SDS011;2753;49.196;8.286;2023-05-10T13:29:58;6.53;;;1.00;;
5460;SDS011;2753;49.196;8.286;2023-05-10T13:32:24;6.23;;;0.77;;
5460;SDS011;2753;49.196;8.286;2023-05-10T13:34:54;2.93;;;1.10;;
5460;SDS011;2753;49.196;8.286;2023-05-10T13:37:20;2.30;;;0.53;;
5460;SDS011;2753;49.196;8.286;2023-05-10T13:39:49;1.70;;;0.83;;
5460;SDS011;2753;49.196;8.286;2023-05-10T13:42:15;0.50;;;0.47;;
5460;SDS011;2753;49.196;8.286;2023-05-10T13:44:48;1.13;;;0.50;;
5460;SDS011;2753;49.196;8.286;2023-05-10T13:47:14;2.13;;;0.83;;
5460;SDS011;2753;49.196;8.286;2023-05-10T13:49:40;0.70;;;0.57;;
5460;SDS011;2753;49.196;8.286;2023-05-10T13:52:06;2.93;;;0.60;;
5460;SDS011;2753;49.196;8.286;2023-05-10T13:54:41;3.37;;;0.43;;
5460;SDS011;2753;49.196;8.286;2023-05-10T13:57:10;4.77;;;0.80;;
5460;SDS011;2753;49.196;8.286;2023-05-10T13:59:37;0.70;;;0.50;;
5460;SDS011;2753;49.196;8.286;2023-05-10T14:02:03;1.87;;;0.60;;
5460;SDS011;2753;49.196;8.286;2023-05-10T14:04:29;2.07;;;0.60;;
5460;SDS011;2753;49.196;8.286;2023-05-10T14:06:55;1.03;;;0.70;;
5460;SDS011;2753;49.196;8.286;2023-05-10T14:09:21;1.13;;;1.03;;
5460;SDS011;2753;49.196;8.286;2023-05-10T14:11:46;2.10;;;0.93;;
5460;SDS011;2753;49.196;8.286;2023-05-10T14:14:12;1.33;;;0.60;;
5460;SDS011;2753;49.196;8.286;2023-05-10T14:16:38;1.77;;;0.90;;
5460;SDS011;2753;49.196;8.286;2023-05-10T14:19:08;5.00;;;0.67;;
5460;SDS011;2753;49.196;8.286;2023-05-10T14:21:34;0.60;;;0.60;;
5460;SDS011;2753;49.196;8.286;2023-05-10T14:24:00;0.60;;;0.60;;
5460;SDS011;2753;49.196;8.286;2023-05-10T14:26:28;0.60;;;0.60;;
5460;SDS011;2753;49.196;8.286;2023-05-10T14:28:54;2.07;;;1.10;;
5460;SDS011;2753;49.196;8.286;2023-05-10T14:31:20;1.67;;;0.60;;
5460;SDS011;2753;49.196;8.286;2023-05-10T14:33:46;1.40;;;0.50;;
5460;SDS011;2753;49.196;8.286;2023-05-10T14:36:12;1.70;;;0.60;;
5460;SDS011;2753;49.196;8.286;2023-05-10T14:38:38;2.00;;;0.50;;
5460;SDS011;2753;49.196;8.286;2023-05-10T14:41:04;1.23;;;0.60;;
5460;SDS011;2753;49.196;8.286;2023-05-10T14:43:31;1.07;;;0.60;;
5460;SDS011;2753;49.196;8.286;2023-05-10T14:45:56;1.10;;;0.43;;
5460;SDS011;2753;49.196;8.286;2023-05-10T14:48:22;0.50;;;0.43;;
5460;SDS011;2753;49.196;8.286;2023-05-10T14:50:48;2.30;;;0.70;;
5460;SDS011;2753;49.196;8.286;2023-05-10T14:53:14;9.73;;;0.60;;
5460;SDS011;2753;49.196;8.286;2023-05-10T14:55:40;0.93;;;0.63;;
5460;SDS011;2753;49.196;8.286;2023-05-10T14:58:06;2.33;;;1.13;;
5460;SDS011;2753;49.196;8.286;2023-05-10T15:00:32;1.93;;;0.70;;
5460;SDS011;2753;49.196;8.286;2023-05-10T15:02:57;0.63;;;0.63;;
5460;SDS011;2753;49.196;8.286;2023-05-10T15:05:23;1.00;;;0.70;;
5460;SDS011;2753;49.196;8.286;2023-05-10T15:07:49;1.83;;;0.60;;
5460;SDS011;2753;49.196;8.286;2023-05-10T15:10:14;0.50;;;0.50;;
5460;SDS011;2753;49.196;8.286;2023-05-10T15:12:40;0.87;;;0.60;;
5460;SDS011;2753;49.196;8.286;2023-05-10T15:15:06;3.37;;;0.70;;
5460;SDS011;2753;49.196;8.286;2023-05-10T15:17:33;1.57;;;0.80;;
5460;SDS011;2753;49.196;8.286;2023-05-10T15:19:58;5.13;;;0.67;;
5460;SDS011;2753;49.196;8.286;2023-05-10T15:22:24;1.10;;;0.40;;
5460;SDS011;2753;49.196;8.286;2023-05-10T15:24:50;2.00;;;0.70;;
5460;SDS011;2753;49.196;8.286;2023-05-10T15:27:16;0.70;;;0.67;;
5460;SDS011;2753;49.196;8.286;2023-05-10T15:29:41;1.47;;;0.90;;
5460;SDS011;2753;49.196;8.286;2023-05-10T15:32:07;3.13;;;0.70;;
5460;SDS011;2753;49.196;8.286;2023-05-10T15:34:33;2.93;;;0.60;;
5460;SDS011;2753;49.196;8.286;2023-05-10T15:36:59;4.13;;;0.90;;
5460;SDS011;2753;49.196;8.286;2023-05-10T15:39:24;1.13;;;0.50;;
5460;SDS011;2753;49.196;8.286;2023-05-10T15:41:50;1.70;;;0.97;;
5460;SDS011;2753;49.196;8.286;2023-05-10T15:44:16;1.07;;;0.80;;
5460;SDS011;2753;49.196;8.286;2023-05-10T15:46:43;2.10;;;0.53;;
5460;SDS011;2753;49.196;8.286;2023-05-10T15:49:09;3.33;;;0.90;;
5460;SDS011;2753;49.196;8.286;2023-05-10T15:51:34;4.93;;;1.20;;
5460;SDS011;2753;49.196;8.286;2023-05-10T15:54:00;8.50;;;1.50;;